Time;durP1;ratioP1;P1;durP2;ratioP2;P2;SDS_P1;SDS_P2;PMS_P1;PMS_P2;Temp;Humidity;BMP_temperature;BMP_pressure;BME280_temperature;BME280_humidity;BME280_pressure;Samples;Min_cycle;Max_cycle;Signal;HPM_P1;HPM_P2
2022/07/10 00:01:26;;;;;;;;;2.67;2.67;;;;;;;;4894061;29;45411;-76
2022/07/10 00:03:51;;;;;;;;;3.00;3.00;;;;;;;;4880041;28;45319;-75
2022/07/10 00:06:16;;;;;;;;;2.00;2.00;;;;;;;;4884012;29;45488;-75
2022/07/10 00:08:42;;;;;;;;;4.67;3.00;;;;;;;;4877122;29;45306;-75
2022/07/10 00:11:08;;;;;;;;;5.00;3.00;;;;;;;;4890546;29;45428;-75
2022/07/10 00:13:33;;;;;;;;;4.33;2.00;;;;;;;;4879883;29;45433;-75
2022/07/10 00:15:59;;;;;;;;;2.67;2.67;;;;;;;;4893574;29;45313;-76
2022/07/10 00:18:24;;;;;;;;;3.33;2.67;;;;;;;;4885550;29;45466;-75
2022/07/10 00:20:49;;;;;;;;;2.67;2.33;;;;;;;;4895987;29;45459;-75
2022/07/10 00:23:14;;;;;;;;;3.00;2.33;;;;;;;;4887812;28;45402;-75
2022/07/10 00:25:40;;;;;;;;;2.00;2.00;;;;;;;;4897104;29;45413;-75
2022/07/10 00:28:05;;;;;;;;;2.67;2.00;;;;;;;;4888429;29;45473;-75
2022/07/10 00:30:30;;;;;;;;;2.00;2.00;;;;;;;;4885017;29;45309;-75
2022/07/10 00:32:55;;;;;;;;;3.00;3.00;;;;;;;;4881203;29;46485;-75
2022/07/10 00:35:20;;;;;;;;;4.00;4.00;;;;;;;;4882203;29;45454;-75
2022/07/10 00:37:46;;;;;;;;;2.33;2.33;;;;;;;;4882454;29;45459;-75
2022/07/10 00:40:12;;;;;;;;;4.67;4.67;;;;;;;;4885229;29;45425;-75
2022/07/10 00:42:37;;;;;;;;;3.00;3.00;;;;;;;;4886077;29;46734;-75
2022/07/10 00:45:02;;;;;;;;;3.00;1.67;;;;;;;;4889471;29;45422;-75
2022/07/10 00:47:27;;;;;;;;;5.33;3.00;;;;;;;;4888608;29;45371;-75
2022/07/10 00:49:53;;;;;;;;;3.33;3.33;;;;;;;;4890068;29;45410;-75
2022/07/10 00:52:18;;;;;;;;;3.00;3.00;;;;;;;;4893651;29;45480;-75
2022/07/10 00:54:45;;;;;;;;;2.67;2.67;;;;;;;;4895172;29;45502;-76
2022/07/10 00:57:12;;;;;;;;;6.67;3.00;;;;;;;;4891158;29;45229;-76
2022/07/10 00:59:37;;;;;;;;;4.00;2.00;;;;;;;;4877880;29;45480;-75
2022/07/10 01:02:03;;;;;;;;;4.00;4.00;;;;;;;;4877851;29;47090;-77
2022/07/10 01:04:29;;;;;;;;;4.67;3.00;;;;;;;;4867615;29;45326;-75
2022/07/10 01:06:54;;;;;;;;;3.00;3.00;;;;;;;;4880407;29;45387;-75
2022/07/10 01:09:20;;;;;;;;;3.33;3.33;;;;;;;;4879207;29;45377;-75
2022/07/10 01:11:45;;;;;;;;;3.33;3.33;;;;;;;;4884241;29;46586;-75
2022/07/10 01:14:10;;;;;;;;;4.00;2.67;;;;;;;;4887753;29;45447;-75
2022/07/10 01:16:36;;;;;;;;;5.00;3.00;;;;;;;;4896059;28;45546;-75
2022/07/10 01:19:01;;;;;;;;;3.00;3.00;;;;;;;;4885619;29;45663;-75
2022/07/10 01:21:31;;;;;;;;;5.00;4.00;;;;;;;;4893835;29;46433;-73
2022/07/10 01:23:56;;;;;;;;;4.00;4.00;;;;;;;;4891737;29;45369;-73
2022/07/10 01:26:23;;;;;;;;;4.00;4.00;;;;;;;;4890403;29;45512;-76
2022/07/10 01:28:49;;;;;;;;;4.67;3.33;;;;;;;;4869933;29;46570;-73
2022/07/10 01:31:14;;;;;;;;;5.33;3.00;;;;;;;;4888551;29;46518;-73
2022/07/10 01:33:40;;;;;;;;;4.67;3.67;;;;;;;;4887995;29;45466;-73
2022/07/10 01:36:05;;;;;;;;;3.00;3.00;;;;;;;;4899531;29;45288;-74
2022/07/10 01:38:31;;;;;;;;;3.00;3.00;;;;;;;;4877055;29;45914;-73
2022/07/10 01:40:56;;;;;;;;;6.00;4.00;;;;;;;;4883440;29;46506;-73
2022/07/10 01:43:21;;;;;;;;;4.00;2.00;;;;;;;;4870989;29;45643;-73
2022/07/10 01:45:46;;;;;;;;;5.33;4.00;;;;;;;;4887385;29;45539;-74
2022/07/10 01:48:12;;;;;;;;;2.33;2.33;;;;;;;;4889571;29;45412;-74
2022/07/10 01:50:38;;;;;;;;;4.67;3.00;;;;;;;;4891157;29;46846;-73
2022/07/10 01:53:05;;;;;;;;;4.00;2.67;;;;;;;;4879655;29;45389;-73
2022/07/10 01:55:31;;;;;;;;;2.00;2.00;;;;;;;;4897154;29;45283;-73
2022/07/10 01:57:56;;;;;;;;;2.00;2.00;;;;;;;;4880730;29;45411;-74
2022/07/10 02:00:21;;;;;;;;;4.00;3.33;;;;;;;;4896468;29;45615;-73
2022/07/10 02:04:40;;;;;;;;;3.00;3.00;;;;;;;;4887371;28;45302;-73
2022/07/10 02:05:31;;;;;;;;;3.67;3.00;;;;;;;;4880681;29;45291;-73
2022/07/10 02:07:57;;;;;;;;;6.67;3.00;;;;;;;;4883237;28;45568;-74
2022/07/10 02:10:22;;;;;;;;;3.00;3.00;;;;;;;;4891420;28;45770;-73
2022/07/10 02:12:47;;;;;;;;;3.67;3.67;;;;;;;;4879162;29;45286;-74
2022/07/10 02:15:12;;;;;;;;;4.00;4.00;;;;;;;;4892417;29;45133;-73
2022/07/10 02:17:37;;;;;;;;;3.00;3.00;;;;;;;;4879456;28;46742;-73
2022/07/10 02:20:03;;;;;;;;;10.00;5.33;;;;;;;;4892860;29;45426;-73
2022/07/10 02:22:28;;;;;;;;;3.00;3.00;;;;;;;;4884555;28;45548;-73
2022/07/10 02:24:53;;;;;;;;;3.00;3.00;;;;;;;;4893922;29;45358;-73
2022/07/10 02:27:18;;;;;;;;;3.00;3.00;;;;;;;;4888500;28;45568;-74
2022/07/10 02:29:44;;;;;;;;;5.00;3.33;;;;;;;;4878488;29;45505;-73
2022/07/10 02:32:09;;;;;;;;;4.00;4.00;;;;;;;;4883566;29;45304;-73
2022/07/10 02:34:34;;;;;;;;;5.00;3.67;;;;;;;;4895104;28;45371;-73
2022/07/10 02:36:59;;;;;;;;;5.33;3.00;;;;;;;;4883302;29;45534;-73
2022/07/10 02:39:24;;;;;;;;;4.67;4.67;;;;;;;;4886786;29;45488;-73
2022/07/10 02:41:50;;;;;;;;;3.00;2.33;;;;;;;;4882979;29;45702;-72
2022/07/10 02:44:15;;;;;;;;;6.00;4.00;;;;;;;;4894234;29;45440;-73
2022/07/10 02:46:41;;;;;;;;;3.33;3.00;;;;;;;;4891180;29;45375;-73
2022/07/10 02:49:06;;;;;;;;;4.00;4.00;;;;;;;;4890383;29;45384;-73
2022/07/10 02:51:31;;;;;;;;;4.67;3.00;;;;;;;;4891524;28;45335;-73
2022/07/10 02:53:57;;;;;;;;;4.00;3.33;;;;;;;;4866465;29;45324;-73
2022/07/10 02:56:22;;;;;;;;;2.67;2.67;;;;;;;;4887796;29;46394;-73
2022/07/10 02:58:47;;;;;;;;;2.33;2.00;;;;;;;;4889900;29;45359;-73
2022/07/10 03:01:12;;;;;;;;;6.67;4.00;;;;;;;;4888311;29;45424;-73
2022/07/10 03:03:38;;;;;;;;;5.00;4.00;;;;;;;;4880248;29;45372;-73
2022/07/10 03:06:03;;;;;;;;;4.00;3.00;;;;;;;;4895800;29;45346;-73
2022/07/10 03:08:29;;;;;;;;;3.00;3.00;;;;;;;;4882957;29;45623;-73
2022/07/10 03:10:54;;;;;;;;;3.00;3.00;;;;;;;;4897960;29;45686;-73
2022/07/10 03:13:19;;;;;;;;;4.00;4.00;;;;;;;;4884930;29;45233;-73
2022/07/10 03:15:44;;;;;;;;;4.33;4.33;;;;;;;;4897179;29;45415;-73
2022/07/10 03:18:10;;;;;;;;;5.33;4.00;;;;;;;;4883286;28;45723;-73
2022/07/10 03:20:35;;;;;;;;;3.00;3.00;;;;;;;;4880598;29;45234;-73
2022/07/10 03:23:00;;;;;;;;;3.67;3.67;;;;;;;;4884864;29;45463;-73
2022/07/10 03:25:25;;;;;;;;;3.00;2.00;;;;;;;;4883337;29;45534;-73
2022/07/10 03:27:50;;;;;;;;;5.00;3.00;;;;;;;;4885511;29;45425;-75
2022/07/10 03:30:16;;;;;;;;;3.33;3.33;;;;;;;;4881468;28;45327;-73
2022/07/10 03:32:41;;;;;;;;;3.67;3.67;;;;;;;;4887192;29;45526;-73
2022/07/10 03:35:06;;;;;;;;;3.67;3.67;;;;;;;;4891370;29;45333;-74
2022/07/10 03:37:32;;;;;;;;;7.00;3.00;;;;;;;;4885674;29;45630;-73
2022/07/10 03:39:57;;;;;;;;;2.67;2.67;;;;;;;;4890179;29;45285;-74
2022/07/10 03:42:22;;;;;;;;;5.33;4.00;;;;;;;;4888707;29;45261;-73
2022/07/10 03:44:48;;;;;;;;;4.00;4.00;;;;;;;;4892509;29;45237;-73
2022/07/10 03:47:13;;;;;;;;;4.67;3.33;;;;;;;;4892297;29;46190;-73
2022/07/10 03:49:38;;;;;;;;;3.00;3.00;;;;;;;;4893366;28;45910;-73
2022/07/10 03:52:04;;;;;;;;;5.33;4.00;;;;;;;;4888779;28;45524;-73
2022/07/10 03:54:29;;;;;;;;;6.67;4.67;;;;;;;;4885710;29;45890;-73
2022/07/10 03:59:38;;;;;;;;;5.33;4.67;;;;;;;;4877952;29;45274;-73
2022/07/10 04:02:04;;;;;;;;;5.00;3.67;;;;;;;;4888435;29;45670;-74
2022/07/10 04:04:29;;;;;;;;;4.00;4.00;;;;;;;;4878029;29;45410;-73
2022/07/10 04:06:54;;;;;;;;;4.67;3.00;;;;;;;;4890731;29;46540;-73
2022/07/10 04:09:19;;;;;;;;;3.67;3.67;;;;;;;;4885453;29;45416;-73
2022/07/10 04:11:44;;;;;;;;;3.00;3.00;;;;;;;;4888314;29;45356;-73
2022/07/10 04:14:10;;;;;;;;;5.00;5.00;;;;;;;;4884228;29;45375;-74
2022/07/10 04:16:35;;;;;;;;;4.00;4.00;;;;;;;;4891098;29;48100;-73
2022/07/10 04:19:00;;;;;;;;;4.00;4.00;;;;;;;;4884574;29;45348;-73
2022/07/10 04:21:25;;;;;;;;;6.00;4.00;;;;;;;;4896082;29;45487;-74
2022/07/10 04:23:51;;;;;;;;;3.00;3.00;;;;;;;;4885929;29;45440;-73
2022/07/10 04:26:16;;;;;;;;;2.67;2.67;;;;;;;;4883157;29;47242;-74
2022/07/10 04:28:41;;;;;;;;;6.33;5.00;;;;;;;;4877586;29;45329;-73
2022/07/10 04:31:06;;;;;;;;;5.00;4.00;;;;;;;;4900640;28;45623;-74
2022/07/10 04:33:31;;;;;;;;;4.33;4.33;;;;;;;;4876389;29;45366;-74
2022/07/10 04:35:56;;;;;;;;;4.33;3.67;;;;;;;;4892229;29;45563;-73
2022/07/10 04:38:22;;;;;;;;;7.00;5.00;;;;;;;;4879476;29;45440;-73
2022/07/10 04:40:47;;;;;;;;;5.00;5.00;;;;;;;;4894187;29;45456;-73
2022/07/10 04:43:12;;;;;;;;;2.00;2.00;;;;;;;;4884076;29;47311;-73
2022/07/10 04:45:37;;;;;;;;;5.33;4.33;;;;;;;;4895891;29;45481;-74
2022/07/10 04:48:04;;;;;;;;;4.00;3.67;;;;;;;;4887544;29;45412;-74
2022/07/10 04:50:29;;;;;;;;;4.00;4.00;;;;;;;;4898513;28;45252;-74
2022/07/10 04:52:54;;;;;;;;;5.00;3.00;;;;;;;;4875782;29;45220;-74
2022/07/10 04:55:21;;;;;;;;;3.00;3.00;;;;;;;;4903461;28;47863;-75
2022/07/10 04:57:46;;;;;;;;;4.00;4.00;;;;;;;;4879142;29;45269;-74
2022/07/10 05:00:12;;;;;;;;;6.00;5.00;;;;;;;;4887376;29;45289;-74
2022/07/10 05:02:37;;;;;;;;;4.67;3.67;;;;;;;;4875948;29;45569;-74
2022/07/10 05:05:02;;;;;;;;;5.00;4.00;;;;;;;;4888519;29;45360;-75
2022/07/10 05:07:27;;;;;;;;;4.00;4.00;;;;;;;;4884172;28;45228;-74
2022/07/10 05:09:53;;;;;;;;;4.33;4.00;;;;;;;;4890579;29;45376;-75
2022/07/10 05:12:18;;;;;;;;;6.33;5.00;;;;;;;;4884110;29;45376;-74
2022/07/10 05:14:43;;;;;;;;;8.67;4.67;;;;;;;;4892855;29;46605;-74
2022/07/10 05:17:08;;;;;;;;;4.67;3.00;;;;;;;;4889456;28;45287;-74
2022/07/10 05:19:34;;;;;;;;;6.00;4.00;;;;;;;;4888883;29;45366;-75
2022/07/10 05:21:59;;;;;;;;;4.33;4.33;;;;;;;;4880052;29;45731;-74
2022/07/10 05:24:24;;;;;;;;;4.00;4.00;;;;;;;;4880807;29;45486;-75
2022/07/10 05:26:49;;;;;;;;;6.00;3.00;;;;;;;;4882630;29;45491;-75
2022/07/10 05:29:14;;;;;;;;;4.00;4.00;;;;;;;;4878097;29;45619;-75
2022/07/10 05:31:40;;;;;;;;;4.67;4.00;;;;;;;;4884934;29;45635;-75
2022/07/10 05:34:05;;;;;;;;;5.67;5.33;;;;;;;;4877528;29;45616;-75
2022/07/10 05:36:31;;;;;;;;;8.00;5.00;;;;;;;;4888939;28;45397;-75
2022/07/10 05:38:56;;;;;;;;;4.33;4.33;;;;;;;;4881075;29;45740;-75
2022/07/10 05:41:21;;;;;;;;;4.67;3.00;;;;;;;;4892615;28;45408;-74
2022/07/10 05:43:46;;;;;;;;;5.00;5.00;;;;;;;;4882749;29;45577;-75
2022/07/10 05:46:12;;;;;;;;;3.33;3.33;;;;;;;;4896877;28;45408;-74
2022/07/10 05:48:38;;;;;;;;;3.00;3.00;;;;;;;;4883485;29;45489;-75
2022/07/10 05:51:03;;;;;;;;;4.00;4.00;;;;;;;;4894688;29;46224;-75
2022/07/10 05:53:29;;;;;;;;;4.67;4.00;;;;;;;;4874824;29;45752;-75
2022/07/10 05:55:59;;;;;;;;;5.33;4.00;;;;;;;;4890595;28;45262;-74
2022/07/10 05:58:24;;;;;;;;;5.00;5.00;;;;;;;;4876427;29;45431;-75
2022/07/10 06:00:50;;;;;;;;;9.00;5.00;;;;;;;;4887161;29;46781;-74
2022/07/10 06:03:15;;;;;;;;;6.33;6.33;;;;;;;;4874469;29;45671;-74
2022/07/10 06:05:41;;;;;;;;;6.67;3.00;;;;;;;;4890860;29;45374;-74
2022/07/10 06:08:06;;;;;;;;;4.00;4.00;;;;;;;;4884089;28;45458;-74
2022/07/10 06:10:31;;;;;;;;;4.00;4.00;;;;;;;;4894941;29;45421;-75
2022/07/10 06:12:56;;;;;;;;;4.00;4.00;;;;;;;;4877506;29;45503;-75
2022/07/10 06:15:21;;;;;;;;;4.67;4.67;;;;;;;;4886497;29;45337;-75
2022/07/10 06:17:47;;;;;;;;;9.00;5.00;;;;;;;;4877244;29;45377;-75
2022/07/10 06:20:12;;;;;;;;;6.00;6.00;;;;;;;;4883996;29;46951;-75
2022/07/10 06:22:39;;;;;;;;;5.67;5.00;;;;;;;;4882083;29;46276;-75
2022/07/10 06:25:05;;;;;;;;;3.00;3.00;;;;;;;;4888675;29;45365;-74
2022/07/10 06:27:31;;;;;;;;;4.00;4.00;;;;;;;;4881069;29;45332;-75
2022/07/10 06:29:56;;;;;;;;;4.00;4.00;;;;;;;;4882773;28;45789;-74
2022/07/10 06:32:22;;;;;;;;;4.67;4.67;;;;;;;;4881735;29;45410;-75
2022/07/10 06:34:47;;;;;;;;;4.00;4.00;;;;;;;;4886759;29;45233;-75
2022/07/10 06:37:12;;;;;;;;;4.33;4.33;;;;;;;;4884365;28;45280;-74
2022/07/10 06:39:38;;;;;;;;;5.00;5.00;;;;;;;;4895955;29;45506;-74
2022/07/10 06:42:03;;;;;;;;;3.00;3.00;;;;;;;;4894146;28;46813;-74
2022/07/10 06:44:29;;;;;;;;;5.67;4.00;;;;;;;;4893044;29;45313;-74
2022/07/10 06:49:39;;;;;;;;;4.67;4.67;;;;;;;;4879718;29;45481;-74
2022/07/10 06:52:04;;;;;;;;;3.33;3.00;;;;;;;;4890599;28;46389;-75
2022/07/10 06:54:29;;;;;;;;;5.33;4.00;;;;;;;;4888969;29;45413;-74
2022/07/10 06:56:55;;;;;;;;;4.00;4.00;;;;;;;;4887788;29;45347;-75
2022/07/10 06:59:20;;;;;;;;;3.00;3.00;;;;;;;;4888573;29;45425;-75
2022/07/10 07:01:45;;;;;;;;;4.67;3.67;;;;;;;;4893699;29;45431;-75
2022/07/10 07:04:11;;;;;;;;;3.33;3.33;;;;;;;;4884682;29;45432;-75
2022/07/10 07:06:36;;;;;;;;;5.67;3.00;;;;;;;;4895254;29;45361;-75
2022/07/10 07:09:01;;;;;;;;;3.00;3.00;;;;;;;;4883885;29;45349;-75
2022/07/10 07:11:26;;;;;;;;;3.33;2.67;;;;;;;;4883312;29;46462;-76
2022/07/10 07:13:51;;;;;;;;;3.00;2.67;;;;;;;;4877285;29;45297;-76
2022/07/10 07:16:19;;;;;;;;;2.00;2.00;;;;;;;;4884009;29;45331;-76
2022/07/10 07:18:51;;;;;;;;;2.33;2.33;;;;;;;;4882762;29;46363;-79
2022/07/10 07:24:00;;;;;;;;;2.00;2.00;;;;;;;;4888734;29;45402;-75
2022/07/10 07:26:25;;;;;;;;;3.00;3.00;;;;;;;;4893129;29;45333;-74
2022/07/10 07:28:51;;;;;;;;;2.00;2.00;;;;;;;;4883337;29;45438;-73
2022/07/10 07:31:17;;;;;;;;;3.00;2.00;;;;;;;;4888483;29;45680;-74
2022/07/10 07:33:43;;;;;;;;;2.00;2.00;;;;;;;;4879680;29;45325;-74
2022/07/10 07:36:08;;;;;;;;;2.67;2.67;;;;;;;;4900628;29;45432;-74
2022/07/10 07:38:33;;;;;;;;;2.33;2.33;;;;;;;;4882066;28;45593;-73
2022/07/10 07:40:59;;;;;;;;;1.00;1.00;;;;;;;;4901336;29;47065;-74
2022/07/10 07:43:24;;;;;;;;;2.00;2.00;;;;;;;;4889400;28;45305;-74
2022/07/10 07:45:49;;;;;;;;;3.00;3.00;;;;;;;;4903905;28;45399;-74
2022/07/10 07:48:14;;;;;;;;;3.00;3.00;;;;;;;;4897147;28;46737;-76
2022/07/10 07:50:40;;;;;;;;;2.33;1.67;;;;;;;;4901184;28;45415;-74
2022/07/10 07:53:05;;;;;;;;;3.00;1.33;;;;;;;;4897175;28;45278;-74
2022/07/10 07:55:31;;;;;;;;;3.75;2.25;;;;;;;;4903619;28;45354;-73
2022/07/10 07:57:56;;;;;;;;;2.00;2.00;;;;;;;;4897425;28;45478;-73
2022/07/10 08:00:25;;;;;;;;;5.75;2.00;;;;;;;;4898201;28;46329;-74
2022/07/10 08:02:51;;;;;;;;;3.00;3.00;;;;;;;;4896733;29;45515;-74
2022/07/10 08:05:17;;;;;;;;;3.25;2.00;;;;;;;;4902248;29;45462;-74
2022/07/10 08:07:43;;;;;;;;;3.25;2.50;;;;;;;;4895743;29;46055;-74
2022/07/10 08:10:09;;;;;;;;;1.75;1.75;;;;;;;;4903277;28;45595;-73
2022/07/10 08:12:35;;;;;;;;;4.00;2.50;;;;;;;;4895639;29;45322;-73
2022/07/10 08:15:00;;;;;;;;;2.50;2.50;;;;;;;;4903396;28;45180;-73
2022/07/10 08:17:26;;;;;;;;;2.25;2.25;;;;;;;;4896672;29;45376;-73
2022/07/10 08:19:52;;;;;;;;;3.00;1.75;;;;;;;;4902970;28;45289;-73
2022/07/10 08:22:17;;;;;;;;;3.75;3.75;;;;;;;;4896874;28;45390;-72
2022/07/10 08:24:42;;;;;;;;;1.75;1.75;;;;;;;;4902945;29;45767;-73
2022/07/10 08:27:08;;;;;;;;;4.00;3.50;;;;;;;;4897386;29;45237;-73
2022/07/10 08:29:33;;;;;;;;;1.75;1.75;;;;;;;;4899281;29;46790;-74
2022/07/10 08:31:59;;;;;;;;;0.75;0.75;;;;;;;;4896923;29;45344;-74
2022/07/10 08:34:24;;;;;;;;;1.00;1.00;;;;;;;;4897798;28;45534;-73
2022/07/10 08:36:49;;;;;;;;;2.00;2.00;;;;;;;;4896316;28;46764;-74
2022/07/10 08:39:16;;;;;;;;;0.50;0.50;;;;;;;;4899432;28;45519;-74
2022/07/10 08:41:42;;;;;;;;;2.60;2.20;;;;;;;;4898681;28;45528;-74
2022/07/10 08:44:08;;;;;;;;;1.00;1.00;;;;;;;;4897929;29;45631;-69
2022/07/10 08:46:34;;;;;;;;;3.00;3.00;;;;;;;;4897380;29;45459;-69
2022/07/10 08:49:00;;;;;;;;;1.50;1.50;;;;;;;;4892160;28;45534;-69
2022/07/10 08:51:47;;;;;;;;;2.20;2.00;;;;;;;;4897916;28;45588;-68
2022/07/10 08:54:13;;;;;;;;;2.00;2.00;;;;;;;;4895866;28;45347;-69
2022/07/10 08:56:38;;;;;;;;;0.75;0.75;;;;;;;;4888832;29;45680;-68
2022/07/10 08:59:04;;;;;;;;;2.25;2.25;;;;;;;;4884360;28;45468;-68
2022/07/10 09:01:30;;;;;;;;;1.80;0.00;;;;;;;;4893525;29;45407;-68
2022/07/10 09:03:55;;;;;;;;;1.00;1.00;;;;;;;;4884615;29;45341;-68
2022/07/10 09:06:20;;;;;;;;;2.00;2.00;;;;;;;;4895112;29;45328;-68
2022/07/10 09:08:58;;;;;;;;;1.50;1.50;;;;;;;;4876254;29;47490;-68
2022/07/10 09:11:25;;;;;;;;;2.40;2.20;;;;;;;;4881413;29;45322;-68
2022/07/10 09:13:54;;;;;;;;;2.00;2.00;;;;;;;;4878546;29;45406;-69
2022/07/10 09:16:20;;;;;;;;;1.50;1.50;;;;;;;;4885288;29;45865;-69
2022/07/10 09:18:45;;;;;;;;;2.20;2.20;;;;;;;;4877956;29;46096;-69
2022/07/10 09:21:11;;;;;;;;;2.00;2.00;;;;;;;;4903787;28;45408;-69
2022/07/10 09:23:36;;;;;;;;;3.75;2.50;;;;;;;;4884505;29;45382;-69
2022/07/10 09:26:04;;;;;;;;;2.75;1.75;;;;;;;;4898358;28;46280;-69
2022/07/10 09:28:29;;;;;;;;;1.40;1.40;;;;;;;;4888716;29;47962;-69
2022/07/10 09:30:55;;;;;;;;;4.00;2.75;;;;;;;;4885604;29;45455;-69
2022/07/10 09:33:25;;;;;;;;;2.00;2.00;;;;;;;;4882203;28;45316;-69
2022/07/10 09:36:12;;;;;;;;;1.80;1.80;;;;;;;;4897371;29;45474;-69
2022/07/10 09:38:43;;;;;;;;;2.40;1.80;;;;;;;;4878823;29;46405;-69
2022/07/10 09:41:12;;;;;;;;;2.00;1.00;;;;;;;;4871949;29;45484;-70
2022/07/10 09:43:47;;;;;;;;;2.20;2.20;;;;;;;;4871957;29;45384;-70
2022/07/10 09:46:13;;;;;;;;;2.20;1.00;;;;;;;;4874720;29;45353;-70
2022/07/10 09:48:39;;;;;;;;;0.75;0.75;;;;;;;;4875717;29;45489;-70
2022/07/10 09:51:10;;;;;;;;;2.00;1.50;;;;;;;;4889262;28;45392;-69
2022/07/10 09:53:39;;;;;;;;;2.60;2.60;;;;;;;;4882751;29;45709;-70
2022/07/10 09:56:06;;;;;;;;;1.20;1.20;;;;;;;;4890336;29;46791;-70
2022/07/10 09:58:33;;;;;;;;;0.40;0.40;;;;;;;;4887339;29;45424;-69
2022/07/10 10:00:58;;;;;;;;;1.60;1.20;;;;;;;;4886557;29;45331;-70
2022/07/10 10:03:24;;;;;;;;;0.25;0.25;;;;;;;;4880953;29;45333;-69
2022/07/10 10:06:00;;;;;;;;;1.00;1.00;;;;;;;;4892215;29;45620;-71
2022/07/10 10:08:29;;;;;;;;;0.40;0.40;;;;;;;;4890643;28;45737;-70
2022/07/10 10:10:56;;;;;;;;;1.20;1.20;;;;;;;;4900989;29;45243;-70
2022/07/10 10:13:22;;;;;;;;;2.00;2.00;;;;;;;;4891406;29;45597;-70
2022/07/10 10:15:49;;;;;;;;;3.20;3.20;;;;;;;;4903118;29;45539;-70
2022/07/10 10:18:24;;;;;;;;;1.60;1.60;;;;;;;;4892680;28;45567;-70
2022/07/10 10:20:50;;;;;;;;;3.00;3.00;;;;;;;;4902071;29;45431;-71
2022/07/10 10:23:22;;;;;;;;;2.00;2.00;;;;;;;;4891790;28;45528;-70
2022/07/10 10:25:53;;;;;;;;;6.00;6.00;;;;;;;;4901517;29;45259;-71
2022/07/10 10:28:23;;;;;;;;;5.20;2.40;;;;;;;;4893053;28;45850;-70
2022/07/10 10:30:49;;;;;;;;;7.00;4.40;;;;;;;;4897548;29;45474;-71
2022/07/10 10:33:40;;;;;;;;;0.40;0.40;;;;;;;;4895419;28;45435;-70
2022/07/10 10:36:05;;;;;;;;;5.60;4.00;;;;;;;;4902781;29;45373;-70
2022/07/10 10:38:51;;;;;;;;;11.00;8.00;;;;;;;;4895495;29;48312;-71
2022/07/10 10:41:22;;;;;;;;;29.33;25.00;;;;;;;;4902016;28;45333;-70
2022/07/10 10:44:08;;;;;;;;;7.60;7.60;;;;;;;;4899602;29;45526;-70
2022/07/10 10:46:33;;;;;;;;;2.00;2.00;;;;;;;;4900516;29;45577;-71
2022/07/10 10:49:09;;;;;;;;;2.00;2.00;;;;;;;;4901655;29;46675;-71
2022/07/10 10:51:52;;;;;;;;;2.60;2.60;;;;;;;;4899543;28;45356;-70
2022/07/10 10:54:17;;;;;;;;;0.60;0.60;;;;;;;;4898737;29;45337;-71
2022/07/10 10:56:43;;;;;;;;;2.00;2.00;;;;;;;;4897919;29;46152;-71
2022/07/10 10:59:08;;;;;;;;;2.75;2.75;;;;;;;;4897176;29;46756;-71
2022/07/10 11:01:34;;;;;;;;;1.00;1.00;;;;;;;;4899263;28;45496;-71
2022/07/10 11:04:05;;;;;;;;;1.75;1.75;;;;;;;;4897351;29;45376;-71
2022/07/10 11:06:47;;;;;;;;;0.00;0.00;;;;;;;;4899590;28;45387;-74
2022/07/10 11:09:32;;;;;;;;;2.20;1.20;;;;;;;;4897721;29;45390;-74
2022/07/10 11:11:57;;;;;;;;;0.40;0.40;;;;;;;;4895483;29;45993;-73
2022/07/10 11:14:27;;;;;;;;;2.50;2.50;;;;;;;;4899369;29;45281;-74
2022/07/10 11:16:53;;;;;;;;;1.40;1.40;;;;;;;;4896591;29;46700;-73
2022/07/10 11:19:23;;;;;;;;;0.60;0.60;;;;;;;;4897827;29;46794;-73
2022/07/10 11:21:54;;;;;;;;;0.00;0.00;;;;;;;;4896655;29;45549;-73
2022/07/10 11:24:33;;;;;;;;;1.60;1.20;;;;;;;;4899673;29;45529;-73
2022/07/10 11:27:02;;;;;;;;;1.80;1.20;;;;;;;;4895874;29;45439;-74
2022/07/10 11:29:27;;;;;;;;;2.80;1.20;;;;;;;;4898639;28;45574;-74
2022/07/10 11:31:53;;;;;;;;;1.75;1.00;;;;;;;;4896733;28;45464;-73
2022/07/10 11:34:19;;;;;;;;;1.50;1.50;;;;;;;;4898496;29;45462;-73
2022/07/10 11:36:44;;;;;;;;;0.25;0.25;;;;;;;;4898688;28;45531;-73
2022/07/10 11:39:09;;;;;;;;;2.00;0.00;;;;;;;;4897282;28;45572;-74
2022/07/10 11:41:42;;;;;;;;;0.00;0.00;;;;;;;;4895019;29;45531;-73
2022/07/10 11:44:12;;;;;;;;;1.20;0.00;;;;;;;;4895877;29;45287;-73
2022/07/10 11:46:38;;;;;;;;;19.80;19.60;;;;;;;;4894641;29;45950;-74
2022/07/10 11:49:05;;;;;;;;;3.25;2.25;;;;;;;;4897190;28;45377;-74
2022/07/10 11:51:31;;;;;;;;;1.40;1.40;;;;;;;;4899644;28;45453;-74
2022/07/10 11:53:59;;;;;;;;;2.40;2.40;;;;;;;;4897056;29;45866;-73
2022/07/10 11:56:25;;;;;;;;;1.20;1.00;;;;;;;;4900583;28;45360;-73
2022/07/10 11:58:58;;;;;;;;;3.40;1.80;;;;;;;;4895907;29;45570;-74
2022/07/10 12:01:23;;;;;;;;;0.00;0.00;;;;;;;;4901548;28;45401;-75
2022/07/10 12:04:00;;;;;;;;;0.00;0.00;;;;;;;;4894761;29;45337;-75
2022/07/10 12:06:26;;;;;;;;;2.00;1.20;;;;;;;;4900493;28;45306;-74
2022/07/10 12:08:51;;;;;;;;;0.00;0.00;;;;;;;;4895562;29;45640;-73
2022/07/10 12:11:18;;;;;;;;;1.00;0.00;;;;;;;;4902287;29;45297;-74
2022/07/10 12:13:46;;;;;;;;;3.20;2.20;;;;;;;;4893346;29;45245;-73
2022/07/10 12:16:12;;;;;;;;;7.60;7.60;;;;;;;;4902916;28;45584;-73
2022/07/10 12:18:38;;;;;;;;;15.00;13.00;;;;;;;;4892474;28;45473;-73
2022/07/10 12:21:04;;;;;;;;;3.75;3.75;;;;;;;;4888275;28;45687;-73
2022/07/10 12:23:30;;;;;;;;;18.00;16.60;;;;;;;;4879226;29;45697;-72
2022/07/10 12:25:56;;;;;;;;;3.00;2.00;;;;;;;;4880845;29;45403;-72
2022/07/10 12:28:21;;;;;;;;;1.00;0.80;;;;;;;;4880082;29;46179;-72
2022/07/10 12:30:49;;;;;;;;;3.25;2.00;;;;;;;;4880642;28;45708;-73
2022/07/10 12:33:18;;;;;;;;;3.80;3.80;;;;;;;;4880955;29;45538;-73
2022/07/10 12:35:49;;;;;;;;;1.00;0.60;;;;;;;;4884605;29;45852;-72
2022/07/10 12:38:16;;;;;;;;;3.00;3.00;;;;;;;;4879726;29;46718;-73
2022/07/10 12:40:42;;;;;;;;;3.40;2.40;;;;;;;;4880197;29;45483;-73
2022/07/10 12:43:07;;;;;;;;;4.00;2.75;;;;;;;;4879701;29;45592;-73
2022/07/10 12:45:32;;;;;;;;;7.00;4.75;;;;;;;;4880177;29;46011;-73
2022/07/10 12:47:57;;;;;;;;;1.75;0.00;;;;;;;;4879585;29;46373;-74
2022/07/10 12:50:25;;;;;;;;;0.75;0.75;;;;;;;;4881293;29;45466;-73
2022/07/10 12:53:06;;;;;;;;;0.00;0.00;;;;;;;;4879142;29;45698;-74
2022/07/10 12:55:34;;;;;;;;;3.20;3.20;;;;;;;;4881178;29;45535;-73
2022/07/10 12:58:05;;;;;;;;;1.00;1.00;;;;;;;;4878175;29;45511;-73
2022/07/10 13:00:33;;;;;;;;;0.60;0.60;;;;;;;;4879402;29;45339;-74
2022/07/10 13:02:58;;;;;;;;;8.40;8.40;;;;;;;;4879809;29;45529;-74
2022/07/10 13:05:33;;;;;;;;;1.00;1.00;;;;;;;;4878463;29;47245;-71
2022/07/10 13:08:11;;;;;;;;;1.00;1.00;;;;;;;;4878040;29;47740;-73
2022/07/10 13:10:37;;;;;;;;;2.20;0.20;;;;;;;;4880422;29;45234;-72
2022/07/10 13:13:05;;;;;;;;;0.00;0.00;;;;;;;;4877313;29;45416;-73
2022/07/10 13:15:30;;;;;;;;;40.80;33.40;;;;;;;;4883750;29;45494;-73
2022/07/10 13:17:56;;;;;;;;;0.00;0.00;;;;;;;;4880761;29;46793;-73
2022/07/10 13:20:21;;;;;;;;;0.25;0.25;;;;;;;;4882552;29;46251;-74
2022/07/10 13:22:46;;;;;;;;;2.00;0.25;;;;;;;;4880657;29;46164;-74
2022/07/10 13:25:12;;;;;;;;;2.75;0.50;;;;;;;;4882519;29;45661;-73
2022/07/10 13:27:37;;;;;;;;;0.00;0.00;;;;;;;;4877028;29;46754;-73
2022/07/10 13:30:03;;;;;;;;;0.00;0.00;;;;;;;;4881976;29;46079;-74
2022/07/10 13:32:28;;;;;;;;;2.00;1.00;;;;;;;;4885524;29;45546;-74
2022/07/10 13:34:54;;;;;;;;;1.00;1.00;;;;;;;;4881392;29;45303;-74
2022/07/10 13:37:19;;;;;;;;;0.25;0.25;;;;;;;;4876568;29;45464;-73
2022/07/10 13:39:45;;;;;;;;;1.50;0.50;;;;;;;;4877854;29;45464;-73
2022/07/10 13:42:10;;;;;;;;;0.25;0.00;;;;;;;;4876762;29;45392;-72
2022/07/10 13:44:35;;;;;;;;;0.25;0.25;;;;;;;;4877990;29;45369;-72
2022/07/10 13:47:01;;;;;;;;;0.00;0.00;;;;;;;;4877331;29;48357;-73
2022/07/10 13:49:27;;;;;;;;;0.75;0.00;;;;;;;;4875785;29;45499;-72
2022/07/10 13:51:52;;;;;;;;;0.20;0.20;;;;;;;;4877867;29;45410;-72
2022/07/10 13:54:17;;;;;;;;;0.25;0.00;;;;;;;;4877471;29;45526;-71
2022/07/10 13:56:43;;;;;;;;;0.00;0.00;;;;;;;;4877098;29;46495;-71
2022/07/10 13:59:08;;;;;;;;;1.00;0.00;;;;;;;;4878167;29;45755;-71
2022/07/10 14:01:33;;;;;;;;;0.00;0.00;;;;;;;;4876512;29;45436;-71
2022/07/10 14:03:58;;;;;;;;;0.25;0.25;;;;;;;;4879253;29;45387;-71
2022/07/10 14:06:24;;;;;;;;;0.00;0.00;;;;;;;;4879810;29;45613;-72
2022/07/10 14:08:49;;;;;;;;;0.00;0.00;;;;;;;;4877737;29;45594;-70
2022/07/10 14:11:14;;;;;;;;;0.00;0.00;;;;;;;;4879817;29;45585;-71
2022/07/10 14:13:39;;;;;;;;;0.75;0.00;;;;;;;;4875794;29;45520;-71
2022/07/10 14:16:05;;;;;;;;;1.75;1.75;;;;;;;;4877210;29;46728;-71
2022/07/10 14:18:41;;;;;;;;;5.00;5.00;;;;;;;;4878690;29;45335;-71
2022/07/10 14:21:10;;;;;;;;;0.00;0.00;;;;;;;;4876126;29;45589;-71
2022/07/10 14:23:38;;;;;;;;;0.20;0.20;;;;;;;;4877214;29;45520;-71
2022/07/10 14:26:05;;;;;;;;;0.00;0.00;;;;;;;;4878818;29;47419;-72
2022/07/10 14:28:31;;;;;;;;;0.00;0.00;;;;;;;;4878303;29;45578;-72
2022/07/10 14:30:59;;;;;;;;;0.00;0.00;;;;;;;;4880600;29;45596;-71
2022/07/10 14:33:24;;;;;;;;;0.40;0.00;;;;;;;;4882417;29;45399;-71
2022/07/10 14:35:49;;;;;;;;;1.00;0.00;;;;;;;;4890222;29;45526;-71
2022/07/10 14:38:14;;;;;;;;;0.00;0.00;;;;;;;;4874229;29;45463;-71
2022/07/10 14:40:39;;;;;;;;;0.75;0.75;;;;;;;;4875991;29;45634;-71
2022/07/10 14:43:05;;;;;;;;;0.00;0.00;;;;;;;;4875901;29;45567;-71
2022/07/10 14:45:30;;;;;;;;;0.00;0.00;;;;;;;;4875954;29;46068;-71
2022/07/10 14:47:55;;;;;;;;;0.00;0.00;;;;;;;;4874296;29;45600;-70